e-Mail: Password: Lost your password? Click here. - Register a new user

c h a v e z j u a r e z . c o m

Weather - Tiempo - Wetter - Temps

METAR DATA MMMX (Mexico City)

Mexico City / Licenci, Mexico (MMMX) 19-26N 099-06W
Jan 18, 2019 - 02:17 PM EST / 2019.01.18 1917 UTC
Wind: from the NNW (340 degrees) at 7 MPH (6 KT):0
Visibility: 6 mile(s):0
Sky conditions: mostly cloudy
Temperature: 69 F (21 C)
Dew Point: 37 F (3 C)
Relative Humidity: 30%
Pressure (altimeter): 30.29 in. Hg (1025 hPa)
ob: MMMX 181917Z 34006KT 6SM FEW030 SCT090 BKN200 21/03 A3029 NOSIG RMK 8/232 HZY
cycle: 19

Mexico City

St. Prex




Current weather alarms for Switzerland


www.wetteralarm.ch